createdAt,value
2022-08-17T00:03:29.937Z,19.44
2022-08-17T00:08:40.214Z,19.43
2022-08-17T00:13:49.379Z,19.44
2022-08-17T00:19:07.886Z,19.38
2022-08-17T00:24:16.603Z,19.34
2022-08-17T00:29:23.870Z,19.33
2022-08-17T00:34:31.215Z,19.34
2022-08-17T00:39:40.252Z,19.28
2022-08-17T00:44:47.498Z,19.15
2022-08-17T00:49:55.509Z,19.06
2022-08-17T00:55:04.025Z,18.98
2022-08-17T01:00:16.488Z,18.96
2022-08-17T01:05:27.816Z,19.04
2022-08-17T01:10:58.624Z,19.11
2022-08-17T01:16:13.623Z,19.03
2022-08-17T01:21:28.926Z,18.91
2022-08-17T01:26:37.711Z,18.83
2022-08-17T01:31:51.261Z,18.78
2022-08-17T01:36:59.142Z,18.72
2022-08-17T01:42:12.692Z,18.70
2022-08-17T01:47:20.824Z,18.73
2022-08-17T01:52:27.815Z,18.71
2022-08-17T01:57:35.165Z,18.68
2022-08-17T02:02:42.968Z,18.58
2022-08-17T02:08:00.267Z,18.44
2022-08-17T02:13:07.971Z,18.40
2022-08-17T02:18:16.967Z,18.43
2022-08-17T02:23:27.657Z,18.54
2022-08-17T02:28:34.650Z,18.57
2022-08-17T02:33:43.739Z,18.45
2022-08-17T02:38:51.004Z,18.38
2022-08-17T02:43:58.011Z,18.36
2022-08-17T02:49:05.667Z,18.32
2022-08-17T02:54:39.974Z,18.25
2022-08-17T02:59:37.938Z,18.19
2022-08-17T03:04:44.935Z,18.09
2022-08-17T03:09:54.229Z,18.02
2022-08-17T03:15:03.650Z,17.99
2022-08-17T03:20:12.322Z,17.97
2022-08-17T03:25:22.733Z,17.97
2022-08-17T03:30:31.434Z,17.99
2022-08-17T03:35:40.662Z,18.00
2022-08-17T03:40:56.819Z,18.01
2022-08-17T03:46:34.637Z,18.04
2022-08-17T03:52:14.713Z,18.04
2022-08-17T03:57:21.817Z,18.03
2022-08-17T04:02:32.344Z,18.02
2022-08-17T04:07:39.301Z,18.06
2022-08-17T04:12:49.765Z,18.13
2022-08-17T04:17:57.900Z,18.17
2022-08-17T04:23:07.230Z,18.18
2022-08-17T04:28:15.841Z,18.20
2022-08-17T04:33:25.558Z,18.23
2022-08-17T04:38:34.944Z,18.28
2022-08-17T04:43:44.081Z,18.31
2022-08-17T04:48:53.371Z,18.36
2022-08-17T04:54:02.776Z,18.46
2022-08-17T04:59:15.658Z,18.56
2022-08-17T05:04:34.204Z,18.66
2022-08-17T05:09:42.322Z,18.76
2022-08-17T05:14:49.205Z,18.84
2022-08-17T05:19:56.202Z,18.94
2022-08-17T05:25:03.095Z,19.08
2022-08-17T05:30:12.760Z,19.21
2022-08-17T05:35:19.749Z,19.35
2022-08-17T05:40:28.126Z,19.48
2022-08-17T05:45:54.742Z,19.65
2022-08-17T05:51:16.984Z,19.81
2022-08-17T05:56:39.674Z,20.02
2022-08-17T06:01:53.593Z,20.21
2022-08-17T06:07:08.878Z,20.37
2022-08-17T06:12:35.816Z,20.48
2022-08-17T06:17:44.993Z,20.63
2022-08-17T06:22:57.311Z,20.76
2022-08-17T06:28:07.175Z,20.87
2022-08-17T06:33:23.994Z,21.00
2022-08-17T06:38:41.434Z,21.14
2022-08-17T06:44:02.143Z,21.29
2022-08-17T06:49:22.052Z,21.40
2022-08-17T06:54:50.788Z,21.52
2022-08-17T07:00:02.096Z,21.63
2022-08-17T07:05:11.511Z,21.74
2022-08-17T07:10:21.201Z,21.86
2022-08-17T07:15:39.100Z,21.97
2022-08-17T07:20:52.393Z,22.08
2022-08-17T07:26:09.179Z,22.19
2022-08-17T07:31:18.018Z,22.28
2022-08-17T07:36:33.930Z,22.42
2022-08-17T07:41:53.367Z,22.56
2022-08-17T07:47:23.947Z,22.74
2022-08-17T07:52:51.366Z,22.99
2022-08-17T07:58:02.088Z,23.19
2022-08-17T08:03:22.299Z,23.37
2022-08-17T08:08:38.864Z,23.59
2022-08-17T08:13:46.536Z,23.86
2022-08-17T08:18:57.756Z,24.15
2022-08-17T08:24:23.960Z,24.46
2022-08-17T08:29:40.878Z,24.75
2022-08-17T08:35:01.682Z,25.04
2022-08-17T08:40:23.455Z,25.28
2022-08-17T08:45:40.059Z,25.53
2022-08-17T08:50:57.323Z,25.76
2022-08-17T08:56:11.250Z,25.93
2022-08-17T09:01:24.584Z,26.13
2022-08-17T09:06:45.662Z,26.32
2022-08-17T09:12:04.230Z,26.45
2022-08-17T09:17:16.555Z,26.63
2022-08-17T09:22:38.392Z,26.70
2022-08-17T09:27:57.459Z,26.56
2022-08-17T09:33:11.489Z,26.44
2022-08-17T09:38:32.150Z,26.40
2022-08-17T09:43:47.787Z,26.44
2022-08-17T09:48:58.991Z,26.61
2022-08-17T09:54:37.118Z,26.79
2022-08-17T09:59:47.868Z,26.92
2022-08-17T10:05:05.879Z,26.95
2022-08-17T10:10:19.783Z,27.04
2022-08-17T10:15:42.634Z,27.14
2022-08-17T10:21:17.003Z,27.18
2022-08-17T10:26:28.415Z,27.14
2022-08-17T10:32:04.557Z,27.09
2022-08-17T10:37:28.650Z,27.10
2022-08-17T10:42:46.014Z,27.22
2022-08-17T10:48:06.353Z,27.29
2022-08-17T10:54:05.810Z,27.33
2022-08-17T10:59:32.669Z,27.32
2022-08-17T11:04:57.625Z,27.29
2022-08-17T11:10:24.035Z,27.27
2022-08-17T11:15:47.296Z,27.26
2022-08-17T11:21:23.826Z,27.32
2022-08-17T11:26:34.291Z,27.42
2022-08-17T11:31:45.592Z,27.52
2022-08-17T11:37:36.299Z,27.65
2022-08-17T11:42:59.455Z,27.77
2022-08-17T11:48:30.117Z,27.81
2022-08-17T11:54:31.001Z,27.90
2022-08-17T12:00:10.994Z,28.02
2022-08-17T12:05:35.437Z,28.14
2022-08-17T12:11:01.356Z,28.24
2022-08-17T12:16:10.158Z,28.36
2022-08-17T12:21:28.897Z,28.58
2022-08-17T12:26:37.978Z,28.73
2022-08-17T12:31:47.925Z,28.77
2022-08-17T12:37:01.233Z,28.78
2022-08-17T12:42:23.449Z,28.90
2022-08-17T12:47:32.058Z,29.08
2022-08-17T12:52:42.549Z,29.20
2022-08-17T12:57:54.681Z,29.29
2022-08-17T13:03:06.033Z,29.44
2022-08-17T13:08:20.115Z,29.53
2022-08-17T13:13:30.233Z,29.63
2022-08-17T13:18:42.676Z,29.72
2022-08-17T13:23:59.878Z,29.82
2022-08-17T13:29:08.684Z,29.95
2022-08-17T13:34:33.423Z,30.02
2022-08-17T13:39:44.528Z,30.07
2022-08-17T13:44:51.762Z,30.07
2022-08-17T13:49:59.099Z,30.05
2022-08-17T13:55:06.190Z,29.99
2022-08-17T14:00:30.057Z,29.95
2022-08-17T14:05:39.657Z,30.07
2022-08-17T14:10:58.969Z,30.07
2022-08-17T14:16:06.917Z,30.03
2022-08-17T14:21:15.211Z,29.95
2022-08-17T14:26:23.291Z,29.90
2022-08-17T14:31:35.389Z,29.85
2022-08-17T14:36:48.620Z,29.82
2022-08-17T14:41:58.025Z,29.81
2022-08-17T14:47:12.188Z,29.81
2022-08-17T14:52:22.354Z,29.79
2022-08-17T14:57:43.992Z,29.78
2022-08-17T15:02:53.925Z,29.77
2022-08-17T15:08:01.742Z,29.67
2022-08-17T15:13:18.488Z,29.52
2022-08-17T15:18:25.867Z,29.37
2022-08-17T15:23:33.792Z,29.29
2022-08-17T15:28:41.448Z,29.27
2022-08-17T15:33:49.808Z,29.29
2022-08-17T15:38:59.011Z,29.38
2022-08-17T15:44:07.681Z,29.39
2022-08-17T15:49:15.239Z,29.34
2022-08-17T15:54:23.641Z,29.31
2022-08-17T15:59:31.276Z,29.31
2022-08-17T16:04:40.789Z,29.28
2022-08-17T16:09:52.066Z,29.08
2022-08-17T16:15:00.056Z,28.85
2022-08-17T16:20:09.476Z,28.64
2022-08-17T16:25:49.707Z,28.40
2022-08-17T16:30:59.373Z,28.18
2022-08-17T16:36:08.332Z,27.99
2022-08-17T16:41:36.913Z,27.81
2022-08-17T16:46:45.739Z,27.67
2022-08-17T16:51:53.342Z,27.54
2022-08-17T16:57:00.532Z,27.44
2022-08-17T17:02:11.347Z,27.37
2022-08-17T17:07:37.633Z,27.30
2022-08-17T17:13:03.060Z,27.21
2022-08-17T17:18:15.135Z,27.13
2022-08-17T17:23:39.024Z,27.05
2022-08-17T17:29:05.092Z,26.95
2022-08-17T17:34:16.350Z,26.84
2022-08-17T17:39:32.234Z,26.71
2022-08-17T17:44:45.108Z,26.59
2022-08-17T17:49:52.774Z,26.44
2022-08-17T17:55:13.575Z,26.30
2022-08-17T18:00:25.201Z,26.15
2022-08-17T18:06:00.565Z,25.95
2022-08-17T18:11:24.346Z,25.69
2022-08-17T18:16:33.477Z,25.47
2022-08-17T18:21:45.121Z,25.31
2022-08-17T18:26:56.131Z,25.20
2022-08-17T18:32:26.025Z,25.10
2022-08-17T18:37:40.333Z,24.90
2022-08-17T18:42:57.023Z,24.67
2022-08-17T18:48:08.635Z,24.39
2022-08-17T18:53:34.821Z,24.19
2022-08-17T18:58:41.152Z,24.06
2022-08-17T19:03:50.677Z,23.91
2022-08-17T19:08:58.444Z,23.67
2022-08-17T19:14:10.642Z,23.48
2022-08-17T19:19:27.122Z,23.32
2022-08-17T19:24:38.046Z,23.20
2022-08-17T19:30:04.029Z,23.12
2022-08-17T19:35:17.854Z,23.00
2022-08-17T19:40:52.130Z,22.94
2022-08-17T19:46:08.830Z,22.82
2022-08-17T19:51:20.879Z,22.82
2022-08-17T19:56:36.454Z,22.92
2022-08-17T20:01:50.310Z,22.91
2022-08-17T20:07:01.092Z,22.79
2022-08-17T20:12:12.038Z,22.77
2022-08-17T20:17:19.957Z,22.71
2022-08-17T20:22:52.165Z,22.60
2022-08-17T20:28:06.270Z,22.40
2022-08-17T20:33:28.542Z,22.26
2022-08-17T20:38:47.841Z,22.25
2022-08-17T20:44:05.978Z,22.25
2022-08-17T20:49:25.147Z,22.15
2022-08-17T20:54:53.778Z,22.06
2022-08-17T21:00:14.960Z,21.98
2022-08-17T21:05:38.953Z,22.00
2022-08-17T21:10:48.230Z,22.04
2022-08-17T21:16:02.278Z,21.97
2022-08-17T21:21:20.725Z,21.86
2022-08-17T21:26:50.156Z,21.72
2022-08-17T21:32:24.525Z,21.50
2022-08-17T21:37:40.295Z,21.33
2022-08-17T21:42:50.718Z,21.28
2022-08-17T21:48:14.293Z,21.29
2022-08-17T21:53:33.215Z,21.29
2022-08-17T21:58:47.849Z,21.31
2022-08-17T22:04:02.128Z,21.36
2022-08-17T22:09:19.873Z,21.34
2022-08-17T22:14:51.816Z,21.28
2022-08-17T22:19:59.643Z,21.15
2022-08-17T22:25:21.025Z,21.01
2022-08-17T22:30:39.681Z,20.95
2022-08-17T22:35:48.083Z,20.98
2022-08-17T22:40:58.409Z,20.96
2022-08-17T22:46:12.257Z,20.90
2022-08-17T22:51:23.035Z,20.75
2022-08-17T22:56:48.354Z,20.70
2022-08-17T23:02:15.017Z,20.77
2022-08-17T23:07:24.144Z,20.83
2022-08-17T23:12:31.157Z,20.87
2022-08-17T23:17:39.067Z,20.79
2022-08-17T23:22:51.255Z,20.63
2022-08-17T23:28:04.953Z,20.53
2022-08-17T23:33:17.651Z,20.48
2022-08-17T23:38:27.263Z,20.42
2022-08-17T23:43:34.835Z,20.38
2022-08-17T23:48:42.362Z,20.26
2022-08-17T23:53:53.516Z,20.15
2022-08-17T23:59:00.748Z,19.99
